< < Back
Terminal Aerodrome Forecast


Current Version              Previous Versions:   1  2  3  4  5  6  7  8  9  

Terminal Aerodrome Forecast

317
FTUS44 KBMX 161700
TAFBHM
TAF
KBHM 161725Z 1618/1718 11005KT P6SM SKC=

Latest METAR

761
SAUS70 KWBC 171000 RRG
MTRBHM
METAR KBHM 170953Z 10004KT 10SM FEW250 09/01 A3031 RMK AO2 SLP262
T00940011


USA.gov is the U.S. government's official web portal to all federal, state and local government web resources and services.